Time,TemperatureF,DewpointF,PressureIn,WindDirection,WindDirectionDegrees,WindSpeedMPH,WindSpeedGustMPH,Humidity,HourlyPrecipIn,Conditions,Clouds,dailyrainin,SoftwareType,DateUTC
2013-06-12 00:00:00,81.0,-99.9,-100.00,North,-999,5.0,9.0,15,-99.99,,,-99.99,,2013-06-12 06:00:00,
2013-06-12 00:02:00,87.0,-99.9,-100.00,North,-999,-999.0,-999.0,-999,-99.99,,,-99.99,,2013-06-12 06:02:00,
2013-06-12 00:32:00,81.0,-99.9,-100.00,North,-999,-999.0,-999.0,-999,-99.99,,,-99.99,,2013-06-12 06:32:00,
2013-06-12 00:42:00,81.0,-99.9,-100.00,North,-999,-999.0,-999.0,-999,-99.99,,,-99.99,,2013-06-12 06:42:00,
2013-06-12 00:52:00,81.0,-99.9,-100.00,North,-999,-999.0,-999.0,-999,-99.99,,,-99.99,,2013-06-12 06:52:00,
2013-06-12 01:00:00,80.0,-99.9,-100.00,North,-999,5.0,10.0,14,-99.99,,,-99.99,,2013-06-12 07:00:00,
2013-06-12 01:23:00,-999.0,-99.9,-100.00,North,-999,5.0,10.0,14,-99.99,,,-99.99,,2013-06-12 07:23:00,
2013-06-12 01:33:00,80.0,-99.9,-100.00,North,-999,5.0,10.0,14,-99.99,,,-99.99,,2013-06-12 07:33:00,
2013-06-12 01:43:00,80.0,-99.9,-100.00,North,-999,5.0,10.0,14,-99.99,,,-99.99,,2013-06-12 07:43:00,
2013-06-12 01:53:00,80.0,-99.9,-100.00,North,-999,5.0,10.0,14,-99.99,,,-99.99,,2013-06-12 07:53:00,
2013-06-12 02:00:00,81.0,-99.9,-100.00,North,-999,6.0,9.0,12,-99.99,,,-99.99,,2013-06-12 08:00:00,
2013-06-12 02:22:00,-999.0,-99.9,-100.00,North,-999,6.0,9.0,12,-99.99,,,-99.99,,2013-06-12 08:22:00,
2013-06-12 02:33:00,81.0,-99.9,-100.00,North,-999,6.0,9.0,12,-99.99,,,-99.99,,2013-06-12 08:33:00,
2013-06-12 02:43:00,81.0,-99.9,-100.00,North,-999,6.0,9.0,12,-99.99,,,-99.99,,2013-06-12 08:43:00,
2013-06-12 02:53:00,81.0,-99.9,-100.00,North,-999,6.0,9.0,12,-99.99,,,-99.99,,2013-06-12 08:53:00,
2013-06-12 03:34:00,71.0,-99.9,-100.00,North,-999,3.0,8.0,15,-99.99,,,-99.99,,2013-06-12 09:34:00,
2013-06-12 04:00:00,78.0,-99.9,-100.00,North,-999,3.0,7.0,15,-99.99,,,-99.99,,2013-06-12 10:00:00,
2013-06-12 04:23:00,-999.0,-99.9,-100.00,North,-999,3.0,7.0,15,-99.99,,,-99.99,,2013-06-12 10:23:00,
2013-06-12 04:33:00,78.0,-99.9,-100.00,North,-999,3.0,7.0,15,-99.99,,,-99.99,,2013-06-12 10:33:00,
2013-06-12 04:43:00,78.0,-99.9,-100.00,North,-999,3.0,7.0,15,-99.99,,,-99.99,,2013-06-12 10:43:00,
2013-06-12 04:53:00,78.0,-99.9,-100.00,North,-999,3.0,7.0,15,-99.99,,,-99.99,,2013-06-12 10:53:00,
2013-06-12 05:00:00,66.0,-99.9,-100.00,North,-999,2.0,4.0,20,-99.99,,,-99.99,,2013-06-12 11:00:00,
2013-06-12 05:24:00,-999.0,-99.9,-100.00,North,-999,2.0,4.0,20,-99.99,,,-99.99,,2013-06-12 11:24:00,
2013-06-12 05:34:00,66.0,-99.9,-100.00,North,-999,2.0,4.0,20,-99.99,,,-99.99,,2013-06-12 11:34:00,
2013-06-12 06:23:00,-999.0,-99.9,-100.00,North,-999,2.0,4.0,21,-99.99,,,-99.99,,2013-06-12 12:23:00,
2013-06-12 06:34:00,64.0,-99.9,-100.00,North,-999,2.0,4.0,21,-99.99,,,-99.99,,2013-06-12 12:34:00,
2013-06-12 07:00:00,67.0,-99.9,-100.00,North,-999,1.0,3.0,20,-99.99,,,-99.99,,2013-06-12 13:00:00,
2013-06-12 07:22:00,-999.0,-99.9,-100.00,North,-999,1.0,3.0,20,-99.99,,,-99.99,,2013-06-12 13:22:00,
2013-06-12 07:33:00,67.0,-99.9,-100.00,North,-999,1.0,3.0,20,-99.99,,,-99.99,,2013-06-12 13:33:00,
2013-06-12 07:43:00,67.0,-99.9,-100.00,North,-999,1.0,3.0,20,-99.99,,,-99.99,,2013-06-12 13:43:00,
2013-06-12 07:53:00,67.0,-99.9,-100.00,North,-999,1.0,3.0,20,-99.99,,,-99.99,,2013-06-12 13:53:00,
2013-06-12 08:00:00,78.0,-99.9,-100.00,North,-999,1.0,4.0,15,-99.99,,,-99.99,,2013-06-12 14:00:00,
2013-06-12 08:24:00,-999.0,-99.9,-100.00,North,-999,1.0,4.0,15,-99.99,,,-99.99,,2013-06-12 14:24:00,
2013-06-12 08:33:00,78.0,-99.9,-100.00,North,-999,1.0,4.0,15,-99.99,,,-99.99,,2013-06-12 14:33:00,
2013-06-12 08:43:00,78.0,-99.9,-100.00,North,-999,1.0,4.0,15,-99.99,,,-99.99,,2013-06-12 14:43:00,
2013-06-12 08:53:00,78.0,-99.9,-100.00,North,-999,1.0,4.0,15,-99.99,,,-99.99,,2013-06-12 14:53:00,
2013-06-12 09:00:00,83.0,-99.9,-100.00,North,-999,3.0,5.0,12,-99.99,,,-99.99,,2013-06-12 15:00:00,
2013-06-12 09:33:00,83.0,-99.9,-100.00,North,-999,3.0,5.0,12,-99.99,,,-99.99,,2013-06-12 15:33:00,
2013-06-12 09:43:00,83.0,-99.9,-100.00,North,-999,3.0,5.0,12,-99.99,,,-99.99,,2013-06-12 15:43:00,
2013-06-12 09:52:00,83.0,-99.9,-100.00,North,-999,3.0,5.0,12,-99.99,,,-99.99,,2013-06-12 15:52:00,
2013-06-12 10:00:00,89.0,-99.9,-100.00,North,-999,2.0,5.0,11,-99.99,,,-99.99,,2013-06-12 16:00:00,
2013-06-12 10:22:00,-999.0,-99.9,-100.00,North,-999,2.0,5.0,11,-99.99,,,-99.99,,2013-06-12 16:22:00,
2013-06-12 10:33:00,89.0,-99.9,-100.00,North,-999,2.0,5.0,11,-99.99,,,-99.99,,2013-06-12 16:33:00,
2013-06-12 10:43:00,89.0,-99.9,-100.00,North,-999,2.0,5.0,11,-99.99,,,-99.99,,2013-06-12 16:43:00,
2013-06-12 10:53:00,89.0,-99.9,-100.00,North,-999,2.0,5.0,11,-99.99,,,-99.99,,2013-06-12 16:53:00,
2013-06-12 11:00:00,93.0,-99.9,-100.00,North,-999,3.0,7.0,10,-99.99,,,-99.99,,2013-06-12 17:00:00,
2013-06-12 11:23:00,-999.0,-99.9,-100.00,North,-999,3.0,7.0,10,-99.99,,,-99.99,,2013-06-12 17:23:00,
2013-06-12 11:33:00,93.0,-99.9,-100.00,North,-999,3.0,7.0,10,-99.99,,,-99.99,,2013-06-12 17:33:00,
2013-06-12 11:43:00,93.0,-99.9,-100.00,North,-999,3.0,7.0,10,-99.99,,,-99.99,,2013-06-12 17:43:00,
2013-06-12 11:52:00,93.0,-99.9,-100.00,North,-999,3.0,7.0,10,-99.99,,,-99.99,,2013-06-12 17:52:00,
2013-06-12 12:00:00,98.0,-99.9,-100.00,North,-999,3.0,8.0,7,-99.99,,,-99.99,,2013-06-12 18:00:00,
2013-06-12 12:22:00,-999.0,-99.9,-100.00,North,-999,3.0,8.0,7,-99.99,,,-99.99,,2013-06-12 18:22:00,
2013-06-12 12:33:00,98.0,-99.9,-100.00,North,-999,3.0,8.0,7,-99.99,,,-99.99,,2013-06-12 18:33:00,
2013-06-12 12:43:00,98.0,-99.9,-100.00,North,-999,3.0,8.0,7,-99.99,,,-99.99,,2013-06-12 18:43:00,
2013-06-12 12:53:00,98.0,-99.9,-100.00,North,-999,3.0,8.0,7,-99.99,,,-99.99,,2013-06-12 18:53:00,
2013-06-12 13:00:00,102.0,-99.9,-100.00,North,-999,5.0,13.0,6,-99.99,,,-99.99,,2013-06-12 19:00:00,
2013-06-12 13:22:00,-999.0,-99.9,-100.00,North,-999,5.0,13.0,6,-99.99,,,-99.99,,2013-06-12 19:22:00,
2013-06-12 13:33:00,102.0,-99.9,-100.00,North,-999,5.0,13.0,6,-99.99,,,-99.99,,2013-06-12 19:33:00,
2013-06-12 13:43:00,102.0,-99.9,-100.00,North,-999,5.0,13.0,6,-99.99,,,-99.99,,2013-06-12 19:43:00,
2013-06-12 13:52:00,102.0,-99.9,-100.00,North,-999,5.0,13.0,6,-99.99,,,-99.99,,2013-06-12 19:52:00,
2013-06-12 14:00:00,101.0,-99.9,-100.00,North,-999,5.0,13.0,5,-99.99,,,-99.99,,2013-06-12 20:00:00,
2013-06-12 14:22:00,-999.0,-99.9,-100.00,North,-999,5.0,13.0,5,-99.99,,,-99.99,,2013-06-12 20:22:00,
2013-06-12 14:33:00,101.0,-99.9,-100.00,North,-999,5.0,13.0,5,-99.99,,,-99.99,,2013-06-12 20:33:00,
2013-06-12 14:43:00,101.0,-99.9,-100.00,North,-999,5.0,13.0,5,-99.99,,,-99.99,,2013-06-12 20:43:00,
2013-06-12 14:54:00,101.0,-99.9,-100.00,North,-999,5.0,13.0,5,-99.99,,,-99.99,,2013-06-12 20:54:00,
2013-06-12 15:00:00,104.0,-99.9,-100.00,North,-999,5.0,12.0,4,-99.99,,,-99.99,,2013-06-12 21:00:00,
2013-06-12 15:33:00,104.0,-99.9,-100.00,North,-999,5.0,12.0,4,-99.99,,,-99.99,,2013-06-12 21:33:00,
2013-06-12 15:43:00,104.0,-99.9,-100.00,North,-999,5.0,12.0,4,-99.99,,,-99.99,,2013-06-12 21:43:00,
2013-06-12 15:53:00,104.0,-99.9,-100.00,North,-999,5.0,12.0,4,-99.99,,,-99.99,,2013-06-12 21:53:00,
2013-06-12 16:00:00,104.0,-99.9,-100.00,North,-999,5.0,13.0,4,-99.99,,,-99.99,,2013-06-12 22:00:00,
2013-06-12 16:33:00,104.0,-99.9,-100.00,North,-999,5.0,13.0,4,-99.99,,,-99.99,,2013-06-12 22:33:00,
2013-06-12 16:43:00,104.0,-99.9,-100.00,North,-999,5.0,13.0,4,-99.99,,,-99.99,,2013-06-12 22:43:00,
2013-06-12 16:53:00,104.0,-99.9,-100.00,North,-999,5.0,13.0,4,-99.99,,,-99.99,,2013-06-12 22:53:00,
2013-06-12 17:00:00,104.0,-99.9,-100.00,North,-999,6.0,13.0,4,-99.99,,,-99.99,,2013-06-12 23:00:00,
2013-06-12 17:22:00,-999.0,-99.9,-100.00,North,-999,6.0,13.0,4,-99.99,,,-99.99,,2013-06-12 23:22:00,
2013-06-12 17:32:00,104.0,-99.9,-100.00,North,-999,6.0,13.0,4,-99.99,,,-99.99,,2013-06-12 23:32:00,
2013-06-12 17:43:00,104.0,-99.9,-100.00,North,-999,6.0,13.0,4,-99.99,,,-99.99,,2013-06-12 23:43:00,
2013-06-12 17:53:00,104.0,-99.9,-100.00,North,-999,6.0,13.0,4,-99.99,,,-99.99,,2013-06-12 23:53:00,
2013-06-12 18:00:00,103.0,-99.9,-100.00,North,-999,6.0,12.0,4,-99.99,,,-99.99,,2013-06-13 00:00:00,
2013-06-12 18:22:00,-999.0,-99.9,-100.00,North,-999,6.0,12.0,4,-99.99,,,-99.99,,2013-06-13 00:22:00,
2013-06-12 18:33:00,103.0,-99.9,-100.00,North,-999,6.0,12.0,4,-99.99,,,-99.99,,2013-06-13 00:33:00,
2013-06-12 18:43:00,103.0,-99.9,-100.00,North,-999,6.0,12.0,4,-99.99,,,-99.99,,2013-06-13 00:43:00,
2013-06-12 18:52:00,103.0,-99.9,-100.00,North,-999,6.0,12.0,4,-99.99,,,-99.99,,2013-06-13 00:52:00,
2013-06-12 19:00:00,99.0,-99.9,-100.00,North,-999,8.0,20.0,8,-99.99,,,-99.99,,2013-06-13 01:00:00,
2013-06-12 19:22:00,-999.0,-99.9,-100.00,North,-999,8.0,20.0,8,-99.99,,,-99.99,,2013-06-13 01:22:00,
2013-06-12 19:33:00,99.0,-99.9,-100.00,North,-999,8.0,20.0,8,-99.99,,,-99.99,,2013-06-13 01:33:00,
2013-06-12 19:43:00,99.0,-99.9,-100.00,North,-999,8.0,20.0,8,-99.99,,,-99.99,,2013-06-13 01:43:00,
2013-06-12 19:53:00,99.0,-99.9,-100.00,North,-999,8.0,20.0,8,-99.99,,,-99.99,,2013-06-13 01:53:00,
2013-06-12 20:00:00,95.0,-99.9,-100.00,North,-999,18.0,26.0,9,-99.99,,,-99.99,,2013-06-13 02:00:00,
2013-06-12 20:33:00,95.0,-99.9,-100.00,North,-999,18.0,26.0,9,-99.99,,,-99.99,,2013-06-13 02:33:00,
2013-06-12 20:43:00,95.0,-99.9,-100.00,North,-999,18.0,26.0,9,-99.99,,,-99.99,,2013-06-13 02:43:00,
2013-06-12 20:52:00,95.0,-99.9,-100.00,North,-999,18.0,26.0,9,-99.99,,,-99.99,,2013-06-13 02:52:00,
2013-06-12 21:00:00,93.0,-99.9,-100.00,North,-999,11.0,20.0,7,-99.99,,,-99.99,,2013-06-13 03:00:00,
2013-06-12 21:33:00,93.0,-99.9,-100.00,North,-999,11.0,20.0,7,-99.99,,,-99.99,,2013-06-13 03:33:00,
2013-06-12 21:43:00,93.0,-99.9,-100.00,North,-999,11.0,20.0,7,-99.99,,,-99.99,,2013-06-13 03:43:00,
2013-06-12 21:52:00,93.0,-99.9,-100.00,North,-999,11.0,20.0,7,-99.99,,,-99.99,,2013-06-13 03:52:00,
2013-06-12 22:00:00,93.0,-99.9,-100.00,North,-999,8.0,16.0,12,-99.99,,,-99.99,,2013-06-13 04:00:00,
2013-06-12 22:23:00,-999.0,-99.9,-100.00,North,-999,8.0,16.0,12,-99.99,,,-99.99,,2013-06-13 04:23:00,
2013-06-12 22:33:00,93.0,-99.9,-100.00,North,-999,8.0,16.0,12,-99.99,,,-99.99,,2013-06-13 04:33:00,
2013-06-12 22:43:00,93.0,-99.9,-100.00,North,-999,8.0,16.0,12,-99.99,,,-99.99,,2013-06-13 04:43:00,
2013-06-12 22:54:00,93.0,-99.9,-100.00,North,-999,8.0,16.0,12,-99.99,,,-99.99,,2013-06-13 04:54:00,
2013-06-12 23:00:00,90.0,-99.9,-100.00,North,-999,9.0,23.0,13,-99.99,,,-99.99,,2013-06-13 05:00:00,
2013-06-12 23:24:00,-999.0,-99.9,-100.00,North,-999,9.0,23.0,13,-99.99,,,-99.99,,2013-06-13 05:24:00,
2013-06-12 23:33:00,90.0,-99.9,-100.00,North,-999,9.0,23.0,13,-99.99,,,-99.99,,2013-06-13 05:33:00,
2013-06-12 23:43:00,90.0,-99.9,-100.00,North,-999,9.0,23.0,13,-99.99,,,-99.99,,2013-06-13 05:43:00,
2013-06-12 23:53:00,90.0,-99.9,-100.00,North,-999,9.0,23.0,13,-99.99,,,-99.99,,2013-06-13 05:53:00,